Time;durP1;ratioP1;P1;durP2;ratioP2;P2;SDS_P1;SDS_P2;PMS_P1;PMS_P2;Temp;Humidity;BMP_temperature;BMP_pressure;BME280_temperature;BME280_humidity;BME280_pressure;Samples;Min_cycle;Max_cycle;Signal;HPM_P1;HPM_P2
2021/12/20 00:02:24;;;;;;;27.85;19.27;;;7.30;93.90;;;;;;5011180;28;20052;-81
2021/12/20 00:04:54;;;;;;;29.40;19.60;;;7.20;93.90;;;;;;5006389;28;20061;-83
2021/12/20 00:07:22;;;;;;;28.00;18.17;;;7.20;94.00;;;;;;5007810;28;20022;-83
2021/12/20 00:09:48;;;;;;;28.50;18.85;;;7.20;94.00;;;;;;5013875;28;20022;-84
2021/12/20 00:12:14;;;;;;;33.80;21.75;;;7.30;94.00;;;;;;5007739;28;20014;-83
2021/12/20 00:14:41;;;;;;;32.33;20.95;;;7.20;94.00;;;;;;5013091;28;20034;-78
2021/12/20 00:17:07;;;;;;;30.13;19.75;;;7.20;94.00;;;;;;5006121;28;20026;-82
2021/12/20 00:19:34;;;;;;;27.65;19.02;;;7.20;94.00;;;;;;5010116;28;20040;-82
2021/12/20 00:22:01;;;;;;;30.13;19.67;;;7.20;94.00;;;;;;5008619;28;20026;-82
2021/12/20 00:24:27;;;;;;;30.23;18.98;;;7.30;94.10;;;;;;5017027;28;20052;-82
2021/12/20 00:26:53;;;;;;;29.52;19.27;;;7.30;94.10;;;;;;5015034;28;20053;-82
2021/12/20 00:29:20;;;;;;;34.83;19.45;;;7.20;94.00;;;;;;5007727;28;20068;-82
2021/12/20 00:31:46;;;;;;;27.98;18.38;;;7.20;94.00;;;;;;5011221;28;20036;-82
2021/12/20 00:34:11;;;;;;;25.83;17.33;;;7.20;94.10;;;;;;5006690;28;20026;-76
2021/12/20 00:36:37;;;;;;;26.60;17.40;;;7.20;94.10;;;;;;5032248;28;20034;-79
2021/12/20 00:41:47;;;;;;;25.63;16.63;;;7.20;94.10;;;;;;5020663;28;20041;-82
2021/12/20 00:44:13;;;;;;;30.55;16.63;;;7.20;94.10;;;;;;5020226;28;20034;-82
2021/12/20 00:46:39;;;;;;;30.02;16.98;;;7.30;94.10;;;;;;5017163;28;20034;-82
2021/12/20 00:49:04;;;;;;;29.38;17.58;;;7.20;94.10;;;;;;5011103;28;20022;-76
2021/12/20 00:51:30;;;;;;;26.25;16.63;;;7.30;94.10;;;;;;5010112;28;20046;-80
2021/12/20 00:53:56;;;;;;;27.13;16.52;;;7.20;94.10;;;;;;5013009;28;20057;-82
2021/12/20 00:56:21;;;;;;;25.92;16.75;;;7.20;94.10;;;;;;5015994;28;20105;-82
2021/12/20 00:58:47;;;;;;;30.42;16.50;;;7.30;94.10;;;;;;5018842;28;20040;-83
2021/12/20 01:01:13;;;;;;;26.83;16.33;;;7.30;94.00;;;;;;5012688;28;20037;-82
2021/12/20 01:03:39;;;;;;;28.92;17.52;;;7.20;94.00;;;;;;5021527;28;20261;-73
2021/12/20 01:06:05;;;;;;;26.58;16.70;;;7.30;94.10;;;;;;5009871;28;20040;-74
2021/12/20 01:08:35;;;;;;;26.42;17.00;;;7.20;94.00;;;;;;5019433;28;20038;-81
2021/12/20 01:11:01;;;;;;;29.13;16.88;;;7.20;94.10;;;;;;5024849;28;20098;-74
2021/12/20 01:13:32;;;;;;;25.10;15.88;;;7.30;94.00;;;;;;5019830;28;20038;-80
2021/12/20 01:16:01;;;;;;;26.45;14.63;;;7.20;94.00;;;;;;5013020;28;20069;-82
2021/12/20 01:18:26;;;;;;;23.33;16.02;;;7.20;94.10;;;;;;5000481;28;20039;-81
2021/12/20 01:20:52;;;;;;;25.35;15.85;;;7.20;94.00;;;;;;5001489;28;20056;-81
2021/12/20 01:23:18;;;;;;;26.48;15.20;;;7.20;94.10;;;;;;5016707;28;20033;-81
2021/12/20 01:25:45;;;;;;;28.63;16.35;;;7.20;94.10;;;;;;5018072;28;20049;-73
2021/12/20 01:28:11;;;;;;;28.10;16.52;;;7.20;94.10;;;;;;5037465;28;20034;-81
2021/12/20 01:30:39;;;;;;;28.58;15.25;;;7.20;94.10;;;;;;5016741;28;20104;-82
2021/12/20 01:33:09;;;;;;;25.88;15.40;;;7.20;94.10;;;;;;5030576;28;20034;-81
2021/12/20 01:35:36;;;;;;;25.85;15.43;;;7.20;94.00;;;;;;5015188;28;20025;-81
2021/12/20 01:38:02;;;;;;;25.50;15.55;;;7.20;93.90;;;;;;5015292;28;20029;-77
2021/12/20 01:40:28;;;;;;;28.23;15.75;;;7.20;93.90;;;;;;5016398;28;20029;-81
2021/12/20 01:42:57;;;;;;;27.45;15.95;;;7.20;93.90;;;;;;5033485;28;20022;-77
2021/12/20 01:45:24;;;;;;;25.70;15.35;;;7.20;94.00;;;;;;5027482;28;20054;-81
2021/12/20 01:48:01;;;;;;;23.90;15.32;;;7.20;93.90;;;;;;5014060;28;20037;-76
2021/12/20 01:53:05;;;;;;;29.05;15.43;;;7.10;94.00;;;;;;4993963;28;20053;-81
2021/12/20 01:55:30;;;;;;;29.92;15.35;;;7.20;94.00;;;;;;4999189;28;20023;-78
2021/12/20 01:57:56;;;;;;;25.52;15.07;;;7.20;94.00;;;;;;5011930;28;20042;-82
2021/12/20 02:00:25;;;;;;;24.08;14.73;;;7.20;94.10;;;;;;5006115;28;20132;-80
2021/12/20 02:03:00;;;;;;;27.38;15.20;;;7.20;94.10;;;;;;4997910;28;20026;-81
2021/12/20 02:05:53;;;;;;;28.10;15.15;;;7.20;94.10;;;;;;4997691;28;20030;-75
2021/12/20 02:08:24;;;;;;;25.40;13.70;;;7.20;94.10;;;;;;5001615;28;20025;-82
2021/12/20 02:10:56;;;;;;;23.60;14.45;;;7.20;94.10;;;;;;4994635;28;20026;-77
2021/12/20 02:13:24;;;;;;;23.30;13.45;;;7.20;94.10;;;;;;4995027;28;20034;-82
2021/12/20 02:15:50;;;;;;;21.88;13.05;;;7.20;94.10;;;;;;4994814;28;20304;-82
2021/12/20 02:18:16;;;;;;;24.85;13.63;;;7.30;94.10;;;;;;5000380;28;20031;-82
2021/12/20 02:20:42;;;;;;;22.13;12.93;;;7.20;94.00;;;;;;5001139;28;20091;-82
2021/12/20 02:23:08;;;;;;;26.13;14.00;;;7.20;94.10;;;;;;4991116;28;20022;-82
2021/12/20 02:25:35;;;;;;;23.83;14.43;;;7.20;94.00;;;;;;4994600;28;20038;-77
2021/12/20 02:28:10;;;;;;;21.25;14.07;;;7.10;94.10;;;;;;4995904;28;20027;-76
2021/12/20 02:30:44;;;;;;;16.20;11.00;;;7.20;94.10;;;;;;5002767;28;20022;-82
2021/12/20 02:38:38;;;;;;;24.37;10.93;;;7.20;94.00;;;;;;5023556;28;20037;-77
2021/12/20 02:41:14;;;;;;;21.00;11.65;;;7.20;94.10;;;;;;5014244;28;20290;-79
2021/12/20 02:43:43;;;;;;;18.15;11.00;;;7.20;94.10;;;;;;5024999;28;20167;-82
2021/12/20 02:46:33;;;;;;;18.65;11.57;;;7.20;94.10;;;;;;5012387;28;20019;-83
2021/12/20 02:48:59;;;;;;;22.10;11.63;;;7.20;94.20;;;;;;5013202;28;20037;-83
2021/12/20 02:51:26;;;;;;;21.40;11.43;;;7.10;94.20;;;;;;5012081;28;20039;-77
2021/12/20 02:53:56;;;;;;;18.23;11.05;;;7.20;94.20;;;;;;5020199;28;20037;-82
2021/12/20 02:56:22;;;;;;;19.83;11.13;;;7.20;94.20;;;;;;5029590;28;20031;-82
2021/12/20 02:58:48;;;;;;;21.33;11.52;;;7.10;94.10;;;;;;5025066;28;20061;-81
2021/12/20 03:01:14;;;;;;;18.67;10.95;;;7.20;94.20;;;;;;5011102;28;20026;-82
2021/12/20 03:03:41;;;;;;;19.30;10.60;;;7.20;94.10;;;;;;5019229;28;20037;-82
2021/12/20 03:06:13;;;;;;;17.40;11.32;;;7.20;94.00;;;;;;5020491;28;20022;-82
2021/12/20 03:08:40;;;;;;;17.92;11.38;;;7.20;94.00;;;;;;5034764;28;20041;-82
2021/12/20 03:11:06;;;;;;;19.02;11.70;;;7.20;94.10;;;;;;5019752;28;20057;-80
2021/12/20 03:13:32;;;;;;;19.60;12.40;;;7.20;94.10;;;;;;5013647;28;20033;-81
2021/12/20 03:15:57;;;;;;;19.02;12.23;;;7.20;94.10;;;;;;5015945;28;20038;-83
2021/12/20 03:18:23;;;;;;;23.00;12.20;;;7.20;94.10;;;;;;5019788;28;20033;-82
2021/12/20 03:20:49;;;;;;;25.77;13.63;;;7.10;94.10;;;;;;5019614;28;20030;-83
2021/12/20 03:23:14;;;;;;;21.27;12.77;;;7.10;94.10;;;;;;5022390;28;20049;-81
2021/12/20 03:25:40;;;;;;;18.20;12.95;;;7.10;94.20;;;;;;5020299;28;20050;-82
2021/12/20 03:28:05;;;;;;;20.92;13.90;;;7.10;94.20;;;;;;5007984;28;20053;-80
2021/12/20 03:30:31;;;;;;;20.50;13.80;;;7.10;94.20;;;;;;5009002;28;20118;-81
2021/12/20 03:32:57;;;;;;;17.02;13.27;;;7.10;94.20;;;;;;5012272;28;20310;-82
2021/12/20 03:35:23;;;;;;;19.60;13.00;;;7.10;94.10;;;;;;5015038;28;20037;-82
2021/12/20 03:37:48;;;;;;;19.92;13.55;;;7.10;94.00;;;;;;5015281;28;20030;-82
2021/12/20 03:40:14;;;;;;;18.02;11.93;;;7.10;94.00;;;;;;5019423;28;20034;-82
2021/12/20 03:42:43;;;;;;;17.00;12.13;;;7.10;93.90;;;;;;5019081;28;20057;-76
2021/12/20 03:45:10;;;;;;;18.55;12.70;;;7.10;93.80;;;;;;5020344;28;20037;-83
2021/12/20 03:47:35;;;;;;;16.90;11.90;;;7.10;93.70;;;;;;5015985;28;20034;-83
2021/12/20 03:50:02;;;;;;;14.65;11.55;;;7.10;93.70;;;;;;5025639;28;20037;-73
2021/12/20 03:52:27;;;;;;;17.63;12.60;;;7.00;93.50;;;;;;5012930;28;20066;-82
2021/12/20 03:54:53;;;;;;;17.73;10.52;;;7.00;93.30;;;;;;5024553;28;20029;-81
2021/12/20 03:57:19;;;;;;;14.00;11.07;;;7.00;93.10;;;;;;5016374;28;20030;-81
2021/12/20 03:59:47;;;;;;;14.30;10.82;;;6.90;92.70;;;;;;5021927;28;20030;-83
2021/12/20 04:02:17;;;;;;;13.68;11.02;;;7.00;92.70;;;;;;5013169;28;20025;-79
2021/12/20 04:04:43;;;;;;;15.57;10.88;;;7.00;92.40;;;;;;5018203;28;20074;-83
2021/12/20 04:07:09;;;;;;;15.48;11.10;;;7.00;92.10;;;;;;5027344;28;20045;-82
2021/12/20 04:09:34;;;;;;;14.13;10.77;;;7.00;91.90;;;;;;5011668;28;20078;-79
2021/12/20 04:12:00;;;;;;;14.02;10.73;;;7.00;91.70;;;;;;5018722;28;20053;-79
2021/12/20 04:14:26;;;;;;;14.50;10.88;;;7.10;91.50;;;;;;5024447;28;20239;-81
2021/12/20 04:16:51;;;;;;;15.18;10.93;;;7.10;91.40;;;;;;5015112;28;20022;-83
2021/12/20 04:19:17;;;;;;;14.15;10.93;;;7.10;91.20;;;;;;5011210;28;20034;-82
2021/12/20 04:21:42;;;;;;;15.75;11.38;;;7.10;90.90;;;;;;5014615;28;20022;-83
2021/12/20 04:24:08;;;;;;;17.92;11.73;;;7.10;90.90;;;;;;5016987;28;20026;-75
2021/12/20 04:26:34;;;;;;;16.27;11.32;;;7.10;90.80;;;;;;5015952;28;20100;-76
2021/12/20 04:28:59;;;;;;;14.68;11.88;;;7.10;90.70;;;;;;5020694;28;20085;-82
2021/12/20 04:31:25;;;;;;;15.50;11.55;;;7.10;90.60;;;;;;5010727;28;20026;-83
2021/12/20 04:33:51;;;;;;;15.82;12.40;;;7.10;90.50;;;;;;5011472;28;20029;-83
2021/12/20 04:36:17;;;;;;;15.40;11.88;;;7.10;90.30;;;;;;5026369;28;20029;-83
2021/12/20 04:38:43;;;;;;;13.77;11.68;;;7.10;90.00;;;;;;5014756;28;20062;-83
2021/12/20 04:41:10;;;;;;;15.98;12.23;;;7.10;89.90;;;;;;5027229;28;21322;-80
2021/12/20 04:43:35;;;;;;;16.38;11.93;;;7.10;89.80;;;;;;5020415;28;20086;-83
2021/12/20 04:46:02;;;;;;;17.10;12.88;;;7.10;89.90;;;;;;5013775;28;20014;-76
2021/12/20 04:48:28;;;;;;;15.88;12.57;;;7.10;89.90;;;;;;5011031;28;20022;-83
2021/12/20 04:50:54;;;;;;;14.88;13.25;;;7.10;89.80;;;;;;5036190;28;20031;-74
2021/12/20 04:53:19;;;;;;;15.40;12.68;;;7.10;89.80;;;;;;5019503;28;20137;-78
2021/12/20 04:55:45;;;;;;;16.27;13.70;;;7.10;89.90;;;;;;5019750;28;20033;-81
2021/12/20 04:58:11;;;;;;;17.17;12.77;;;7.10;90.00;;;;;;5020084;28;20219;-83
2021/12/20 05:00:40;;;;;;;17.95;13.13;;;7.10;90.10;;;;;;5018630;28;20048;-82
2021/12/20 05:03:06;;;;;;;18.25;13.13;;;7.10;90.30;;;;;;5017018;28;20042;-82
2021/12/20 05:05:32;;;;;;;15.38;12.88;;;7.10;90.30;;;;;;5011971;28;20036;-83
2021/12/20 05:07:58;;;;;;;16.85;12.50;;;7.10;90.30;;;;;;5010829;28;20053;-84
2021/12/20 05:10:32;;;;;;;17.40;12.65;;;7.10;90.40;;;;;;5010226;28;20281;-83
2021/12/20 05:13:00;;;;;;;17.42;12.57;;;7.10;90.60;;;;;;5033161;28;20045;-83
2021/12/20 05:15:26;;;;;;;17.27;12.73;;;7.10;90.80;;;;;;5014054;28;20054;-79
2021/12/20 05:17:52;;;;;;;20.05;13.98;;;7.10;90.80;;;;;;5010486;28;20034;-82
2021/12/20 05:20:18;;;;;;;17.33;13.85;;;7.10;90.90;;;;;;5009645;28;20035;-83
2021/12/20 05:22:44;;;;;;;16.77;13.10;;;7.10;90.90;;;;;;5017349;28;20027;-83
2021/12/20 05:25:10;;;;;;;20.45;14.27;;;7.00;91.20;;;;;;5013821;28;20029;-74
2021/12/20 05:27:36;;;;;;;19.50;14.80;;;7.10;91.30;;;;;;5011442;28;20122;-81
2021/12/20 05:30:06;;;;;;;19.80;15.48;;;7.10;91.40;;;;;;5017226;28;20026;-80
2021/12/20 05:32:32;;;;;;;22.42;15.77;;;7.10;91.60;;;;;;5017390;28;20028;-76
2021/12/20 05:34:58;;;;;;;19.95;15.30;;;7.10;91.80;;;;;;5011206;28;20065;-81
2021/12/20 05:37:24;;;;;;;19.73;16.58;;;7.00;91.80;;;;;;5014432;28;20015;-82
2021/12/20 05:39:50;;;;;;;21.10;16.92;;;7.00;91.90;;;;;;5010823;28;20035;-83
2021/12/20 05:42:15;;;;;;;24.98;16.95;;;7.00;92.00;;;;;;5014031;28;20022;-83
2021/12/20 05:44:41;;;;;;;21.33;17.58;;;7.00;92.20;;;;;;5019751;28;20074;-83
2021/12/20 05:47:07;;;;;;;23.58;17.35;;;7.00;92.20;;;;;;5025367;28;20022;-78
2021/12/20 05:49:33;;;;;;;23.35;17.42;;;7.00;92.30;;;;;;5021740;28;20058;-81
2021/12/20 05:52:00;;;;;;;24.77;18.33;;;7.00;92.30;;;;;;5018203;28;20025;-82
2021/12/20 05:54:25;;;;;;;22.33;17.17;;;7.00;92.40;;;;;;5014070;28;20034;-82
2021/12/20 05:56:51;;;;;;;25.13;17.55;;;7.10;92.40;;;;;;5012820;28;20029;-83
2021/12/20 05:59:17;;;;;;;25.58;17.70;;;7.10;92.30;;;;;;5019371;28;20166;-74
2021/12/20 06:01:42;;;;;;;26.30;19.15;;;7.00;92.40;;;;;;5021821;28;20038;-80
2021/12/20 06:04:08;;;;;;;26.30;17.95;;;7.00;92.40;;;;;;5017531;28;20023;-81
2021/12/20 06:06:34;;;;;;;26.15;19.08;;;7.00;92.40;;;;;;5019994;28;20023;-83
2021/12/20 06:08:59;;;;;;;25.65;17.75;;;7.00;92.40;;;;;;5017168;28;20034;-83
2021/12/20 06:11:25;;;;;;;29.67;17.35;;;7.00;92.30;;;;;;5016627;28;20110;-83
2021/12/20 06:13:52;;;;;;;25.05;18.35;;;7.00;92.40;;;;;;5012815;28;20026;-83
2021/12/20 06:16:19;;;;;;;23.27;17.27;;;7.00;92.40;;;;;;5011274;28;20279;-83
2021/12/20 06:18:45;;;;;;;26.15;17.95;;;6.90;92.40;;;;;;5014068;28;20030;-83
2021/12/20 06:21:10;;;;;;;25.05;17.35;;;6.90;92.40;;;;;;5012098;28;20041;-84
2021/12/20 06:23:36;;;;;;;25.15;17.95;;;6.90;92.50;;;;;;5012572;28;20029;-84
2021/12/20 06:26:03;;;;;;;28.48;17.98;;;6.90;92.40;;;;;;5011874;28;20307;-74
2021/12/20 06:28:29;;;;;;;28.08;18.52;;;6.90;92.50;;;;;;5016967;28;20038;-84
2021/12/20 06:30:55;;;;;;;28.15;18.13;;;6.90;92.40;;;;;;5017606;28;20030;-83
2021/12/20 06:33:21;;;;;;;32.35;19.25;;;6.90;92.40;;;;;;5011822;28;20042;-83
2021/12/20 06:35:46;;;;;;;28.70;17.48;;;6.90;92.30;;;;;;5021378;28;20044;-83
2021/12/20 06:38:18;;;;;;;26.67;17.80;;;6.80;92.20;;;;;;5016962;28;20033;-83
2021/12/20 06:40:45;;;;;;;23.90;17.45;;;6.90;92.10;;;;;;5008696;28;20039;-84
2021/12/20 06:43:11;;;;;;;26.85;16.52;;;6.80;91.70;;;;;;5023805;28;20041;-81
2021/12/20 06:45:36;;;;;;;22.63;15.07;;;6.80;91.10;;;;;;5015925;28;20034;-84
2021/12/20 06:48:03;;;;;;;24.25;15.90;;;6.70;90.60;;;;;;5005138;28;20038;-83
2021/12/20 06:50:29;;;;;;;26.40;15.68;;;6.80;90.20;;;;;;5010764;28;20015;-83
2021/12/20 06:52:55;;;;;;;28.60;15.95;;;6.80;89.30;;;;;;5024918;28;20030;-84
2021/12/20 06:55:20;;;;;;;28.88;15.85;;;6.80;89.00;;;;;;5005530;28;20041;-78
2021/12/20 06:57:46;;;;;;;28.20;15.68;;;6.80;89.10;;;;;;5010942;28;20077;-78
2021/12/20 07:00:13;;;;;;;25.33;14.77;;;6.80;88.70;;;;;;5037131;28;20339;-83
2021/12/20 07:02:38;;;;;;;26.55;14.48;;;6.80;88.30;;;;;;5005819;28;20018;-83
2021/12/20 07:05:05;;;;;;;31.13;14.20;;;6.80;87.80;;;;;;5002597;28;20018;-82
2021/12/20 07:07:30;;;;;;;24.98;13.25;;;6.80;87.40;;;;;;5008430;28;20022;-83
2021/12/20 07:09:56;;;;;;;24.85;12.25;;;6.70;86.90;;;;;;4998210;28;20015;-82
2021/12/20 07:12:22;;;;;;;31.08;11.60;;;6.70;86.40;;;;;;4998227;28;20308;-80
2021/12/20 07:14:50;;;;;;;21.73;11.90;;;6.80;85.60;;;;;;5004370;28;20171;-83
2021/12/20 07:17:17;;;;;;;23.25;11.70;;;6.70;85.60;;;;;;5019253;28;20083;-83
2021/12/20 07:19:43;;;;;;;20.83;10.40;;;6.70;85.40;;;;;;5010627;28;20030;-81
2021/12/20 07:22:08;;;;;;;22.48;11.20;;;6.70;84.90;;;;;;5002458;28;20022;-83
2021/12/20 07:24:34;;;;;;;23.63;10.75;;;6.70;84.80;;;;;;5000472;28;20069;-82
2021/12/20 07:27:00;;;;;;;26.30;12.05;;;6.70;84.60;;;;;;5005270;28;20038;-84
2021/12/20 07:29:25;;;;;;;23.40;12.10;;;6.70;84.60;;;;;;5006877;28;20030;-84
2021/12/20 07:31:51;;;;;;;23.65;11.73;;;6.70;84.10;;;;;;5018089;28;20027;-84
2021/12/20 07:34:17;;;;;;;26.88;10.27;;;6.60;84.10;;;;;;5003585;28;20018;-79
2021/12/20 07:36:42;;;;;;;25.20;11.50;;;6.70;83.90;;;;;;5003384;28;20060;-81
2021/12/20 07:39:08;;;;;;;22.60;10.68;;;6.60;83.70;;;;;;5010768;28;20048;-82
2021/12/20 07:41:34;;;;;;;22.27;9.90;;;6.60;83.60;;;;;;5001197;28;20046;-81
2021/12/20 07:43:59;;;;;;;25.73;9.48;;;6.70;83.40;;;;;;5013702;28;20034;-82
2021/12/20 07:46:25;;;;;;;20.10;9.18;;;6.70;83.10;;;;;;5010808;28;20054;-82
2021/12/20 07:48:51;;;;;;;26.40;10.13;;;6.70;82.50;;;;;;5001781;28;20019;-74
2021/12/20 07:51:17;;;;;;;29.95;11.52;;;6.70;82.10;;;;;;5027839;28;20019;-80
2021/12/20 07:53:43;;;;;;;23.63;8.68;;;6.70;81.50;;;;;;4999988;28;20026;-80
2021/12/20 07:56:09;;;;;;;23.38;8.00;;;6.70;81.20;;;;;;5005713;28;20022;-83
2021/12/20 07:58:35;;;;;;;22.50;8.93;;;6.60;80.90;;;;;;5005027;28;20045;-84
2021/12/20 08:01:01;;;;;;;20.42;6.82;;;6.60;80.90;;;;;;5000637;28;20030;-81
2021/12/20 08:03:28;;;;;;;23.25;6.68;;;6.60;80.40;;;;;;5001889;28;20049;-80
2021/12/20 08:05:54;;;;;;;21.92;7.38;;;6.60;79.60;;;;;;4995597;28;20046;-75
2021/12/20 08:08:20;;;;;;;21.83;6.18;;;6.70;79.10;;;;;;5001231;28;20042;-75
2021/12/20 08:10:46;;;;;;;17.85;5.57;;;6.60;77.60;;;;;;4999450;28;20351;-75
2021/12/20 08:13:12;;;;;;;18.05;4.93;;;6.70;76.30;;;;;;5007405;28;20022;-76
2021/12/20 08:15:39;;;;;;;26.30;6.63;;;6.80;76.30;;;;;;5000640;28;20039;-73
2021/12/20 08:18:06;;;;;;;17.20;5.32;;;6.80;75.60;;;;;;5009212;28;20033;-74
2021/12/20 08:20:31;;;;;;;18.10;5.10;;;6.80;76.40;;;;;;5015177;28;20085;-75
2021/12/20 08:22:57;;;;;;;16.70;5.47;;;6.80;76.80;;;;;;5015877;28;20033;-75
2021/12/20 08:25:23;;;;;;;19.92;4.97;;;6.80;76.80;;;;;;5008731;28;20034;-69
2021/12/20 08:27:49;;;;;;;17.70;5.78;;;6.80;76.60;;;;;;5009609;28;20050;-75
2021/12/20 08:30:16;;;;;;;25.10;6.72;;;6.80;76.00;;;;;;5016973;28;20022;-76
2021/12/20 08:32:42;;;;;;;25.48;7.50;;;6.80;75.80;;;;;;5007717;28;20022;-76
2021/12/20 08:35:10;;;;;;;19.52;6.13;;;6.90;75.60;;;;;;5005462;28;20038;-76
2021/12/20 08:37:35;;;;;;;19.85;5.53;;;6.90;76.70;;;;;;5011953;28;20035;-75
2021/12/20 08:40:02;;;;;;;21.30;6.15;;;7.00;77.40;;;;;;5010611;28;20042;-71
2021/12/20 08:42:28;;;;;;;17.45;6.38;;;7.00;78.10;;;;;;5021388;28;20033;-76
2021/12/20 08:44:54;;;;;;;22.05;7.30;;;7.10;78.60;;;;;;5009924;28;20034;-75
2021/12/20 08:47:21;;;;;;;18.23;6.63;;;7.10;78.70;;;;;;5012692;28;20030;-69
2021/12/20 08:49:47;;;;;;;16.88;6.38;;;7.10;79.10;;;;;;5007848;28;20022;-76
2021/12/20 08:52:13;;;;;;;26.23;8.20;;;7.10;79.00;;;;;;5003214;28;20030;-76
2021/12/20 08:54:39;;;;;;;24.25;9.88;;;7.10;78.50;;;;;;5009195;28;20097;-76
2021/12/20 08:57:05;;;;;;;35.38;11.77;;;7.00;78.20;;;;;;5009969;28;20030;-75
2021/12/20 08:59:31;;;;;;;29.33;11.35;;;7.00;77.80;;;;;;5031263;28;20094;-71
2021/12/20 09:01:59;;;;;;;20.73;8.75;;;7.00;77.80;;;;;;5016228;28;20050;-76
2021/12/20 09:04:24;;;;;;;23.27;7.10;;;7.00;76.60;;;;;;5016376;28;20014;-76
2021/12/20 09:06:50;;;;;;;18.00;5.05;;;7.00;76.20;;;;;;5006871;28;20036;-77
2021/12/20 09:09:16;;;;;;;16.50;5.45;;;7.00;75.70;;;;;;5005599;28;20045;-76
2021/12/20 09:11:42;;;;;;;26.95;9.43;;;7.10;75.30;;;;;;4999965;28;20034;-74
2021/12/20 09:14:08;;;;;;;20.17;7.57;;;7.10;75.10;;;;;;5000094;28;20038;-75
2021/12/20 09:16:34;;;;;;;23.73;7.78;;;7.10;75.60;;;;;;5004447;28;20032;-76
2021/12/20 09:18:59;;;;;;;24.70;8.23;;;7.10;76.20;;;;;;5015392;28;20136;-76
2021/12/20 09:21:25;;;;;;;24.38;6.90;;;7.10;76.40;;;;;;5014913;28;20042;-76
2021/12/20 09:23:51;;;;;;;24.55;6.07;;;7.20;76.70;;;;;;5012979;28;20050;-67
2021/12/20 09:26:18;;;;;;;18.60;6.53;;;7.10;76.30;;;;;;5014648;28;20602;-74
2021/12/20 09:28:44;;;;;;;19.42;6.05;;;7.20;76.70;;;;;;5013282;28;20057;-75
2021/12/20 09:31:10;;;;;;;22.52;6.25;;;7.30;77.20;;;;;;5011698;28;20030;-75
2021/12/20 09:33:36;;;;;;;21.20;7.20;;;7.30;76.90;;;;;;5009763;28;20061;-75
2021/12/20 09:36:02;;;;;;;20.35;6.78;;;7.30;77.10;;;;;;5017061;28;20029;-69
2021/12/20 09:38:30;;;;;;;27.00;9.50;;;7.40;77.10;;;;;;5019398;28;20038;-75
2021/12/20 09:43:40;;;;;;;24.10;8.60;;;7.30;77.30;;;;;;5006697;28;20043;-74
2021/12/20 09:46:06;;;;;;;27.92;9.13;;;7.30;77.60;;;;;;5015357;28;20235;-69
2021/12/20 09:48:35;;;;;;;24.40;5.85;;;7.30;77.00;;;;;;5013774;28;20049;-74
2021/12/20 09:51:01;;;;;;;23.80;5.72;;;7.30;76.50;;;;;;5010909;28;20153;-75
2021/12/20 09:53:27;;;;;;;20.92;6.57;;;7.20;76.50;;;;;;5002377;28;20049;-76
2021/12/20 09:55:53;;;;;;;28.33;6.90;;;7.30;77.10;;;;;;5008384;28;20026;-74
2021/12/20 09:58:21;;;;;;;27.65;7.32;;;7.30;77.30;;;;;;5006227;28;20045;-75
2021/12/20 10:00:48;;;;;;;26.30;5.70;;;7.20;77.20;;;;;;5008783;28;20092;-75
2021/12/20 10:03:14;;;;;;;23.08;5.90;;;7.30;77.80;;;;;;5006838;28;20058;-69
2021/12/20 10:05:40;;;;;;;23.40;5.55;;;7.40;77.30;;;;;;5007923;28;20026;-71
2021/12/20 10:08:15;;;;;;;20.88;5.57;;;7.40;77.80;;;;;;5009581;28;20176;-72
2021/12/20 10:10:49;;;;;;;20.05;5.82;;;7.40;77.60;;;;;;5010381;28;20027;-74
2021/12/20 10:13:26;;;;;;;;;;;7.30;78.10;;;;;;5028077;28;20019;-74
2021/12/20 10:15:53;;;;;;;19.88;5.35;;;7.40;78.50;;;;;;5016082;28;19917;-71
2021/12/20 10:18:19;;;;;;;19.45;5.78;;;7.40;77.60;;;;;;5007882;28;20038;-73
2021/12/20 10:20:59;;;;;;;23.73;6.13;;;7.40;77.90;;;;;;5023143;28;20034;-74
2021/12/20 10:23:34;;;;;;;21.83;5.45;;;7.40;77.70;;;;;;4999129;28;20037;-75
2021/12/20 10:26:13;;;;;;;23.98;5.68;;;7.30;78.00;;;;;;5018599;28;20061;-76
2021/12/20 10:28:39;;;;;;;18.40;5.47;;;7.40;78.60;;;;;;5004873;28;20027;-75
2021/12/20 10:31:11;;;;;;;26.27;9.25;;;7.50;78.30;;;;;;5002773;28;20065;-75
2021/12/20 10:33:37;;;;;;;37.53;10.90;;;7.50;78.20;;;;;;5002626;28;21557;-71
2021/12/20 10:36:06;;;;;;;22.80;6.38;;;7.50;78.30;;;;;;5003244;28;20026;-73
2021/12/20 10:38:39;;;;;;;22.30;5.80;;;7.50;78.60;;;;;;5004556;28;20042;-74
2021/12/20 10:41:12;;;;;;;18.85;4.95;;;7.60;78.60;;;;;;4998156;28;20022;-74
2021/12/20 10:43:49;;;;;;;17.05;5.15;;;7.60;78.50;;;;;;5002448;28;20050;-74
2021/12/20 10:46:19;;;;;;;23.40;6.55;;;7.60;78.40;;;;;;5002385;28;20026;-75
2021/12/20 10:48:48;;;;;;;18.88;6.07;;;7.70;78.40;;;;;;5006628;28;20041;-76
2021/12/20 10:51:23;;;;;;;25.40;6.45;;;7.70;78.70;;;;;;5018973;28;20019;-74
2021/12/20 10:53:57;;;;;;;21.95;6.18;;;7.80;78.00;;;;;;5007396;28;20014;-75
2021/12/20 10:56:23;;;;;;;21.70;4.50;;;7.80;77.80;;;;;;5003207;28;20026;-76
2021/12/20 10:58:50;;;;;;;21.27;4.55;;;7.70;76.20;;;;;;5005040;28;20042;-74
2021/12/20 11:04:25;;;;;;;19.45;4.72;;;7.70;76.30;;;;;;4994809;28;20041;-74
2021/12/20 11:10:06;;;;;;;20.55;5.07;;;7.60;76.50;;;;;;4999489;28;20058;-72
2021/12/20 11:12:34;;;;;;;22.55;5.80;;;7.60;77.00;;;;;;5003222;28;20062;-74
2021/12/20 11:15:10;;;;;;;19.20;7.70;;;7.70;77.70;;;;;;5001812;28;20053;-73
2021/12/20 11:17:40;;;;;;;21.05;6.28;;;7.80;77.70;;;;;;5018228;28;20018;-74
2021/12/20 11:20:07;;;;;;;23.33;6.43;;;7.80;77.70;;;;;;5004420;28;20035;-73
2021/12/20 11:22:33;;;;;;;29.35;7.15;;;7.90;77.80;;;;;;5020321;28;20030;-73
2021/12/20 11:25:03;;;;;;;23.55;7.22;;;7.90;77.20;;;;;;5001472;28;20057;-75
2021/12/20 11:27:37;;;;;;;20.52;7.07;;;7.90;77.10;;;;;;5004135;28;20030;-76
2021/12/20 11:30:15;;;;;;;22.48;6.45;;;7.90;77.10;;;;;;5003993;28;20035;-74
2021/12/20 11:32:42;;;;;;;24.80;6.82;;;7.90;77.10;;;;;;5004755;28;20019;-75
2021/12/20 11:35:08;;;;;;;20.67;6.20;;;8.00;76.50;;;;;;5004847;28;20027;-74
2021/12/20 11:37:34;;;;;;;17.23;6.63;;;8.00;77.10;;;;;;5002415;28;20135;-74
2021/12/20 11:40:03;;;;;;;22.15;7.47;;;8.10;76.80;;;;;;5004551;28;20042;-76
2021/12/20 11:42:29;;;;;;;23.55;6.38;;;8.00;75.90;;;;;;5003762;28;20034;-75
2021/12/20 11:44:58;;;;;;;25.35;6.47;;;8.00;75.10;;;;;;5004197;28;20034;-74
2021/12/20 11:47:51;;;;;;;17.73;6.65;;;8.00;74.50;;;;;;5001260;28;20030;-69
2021/12/20 11:50:20;;;;;;;21.30;6.25;;;8.10;75.40;;;;;;4999221;28;20052;-74
2021/12/20 11:52:48;;;;;;;20.65;5.70;;;8.10;75.50;;;;;;5002574;28;20598;-74
2021/12/20 11:55:34;;;;;;;22.17;5.95;;;8.10;75.50;;;;;;5001788;28;20045;-74
2021/12/20 11:58:05;;;;;;;18.83;6.05;;;8.10;74.20;;;;;;5003438;28;20061;-76
2021/12/20 12:00:39;;;;;;;22.10;5.32;;;8.10;73.80;;;;;;5002826;28;20054;-75
2021/12/20 12:03:19;;;;;;;21.30;8.10;;;8.10;72.70;;;;;;5004815;28;20030;-73
2021/12/20 12:05:50;;;;;;;17.75;5.45;;;8.10;71.60;;;;;;5017934;28;20101;-69
2021/12/20 12:08:23;;;;;;;26.92;7.22;;;8.00;70.20;;;;;;5003843;28;20030;-76
2021/12/20 12:10:50;;;;;;;21.27;7.10;;;8.00;69.70;;;;;;5003579;28;20032;-76
2021/12/20 12:13:17;;;;;;;23.65;6.53;;;8.00;70.10;;;;;;5011660;28;20022;-71
2021/12/20 12:16:01;;;;;;;16.25;5.40;;;8.10;70.10;;;;;;5014749;28;20050;-73
2021/12/20 12:18:48;;;;;;;25.63;7.93;;;8.10;68.80;;;;;;5008949;28;21552;-72
2021/12/20 12:21:32;;;;;;;21.10;6.22;;;8.10;68.30;;;;;;5001163;28;20054;-73
2021/12/20 12:23:59;;;;;;;20.35;6.30;;;8.20;68.40;;;;;;5018562;28;20073;-75
2021/12/20 12:26:33;;;;;;;13.25;4.47;;;8.20;67.40;;;;;;5008599;28;20019;-75
2021/12/20 12:29:01;;;;;;;19.75;5.72;;;8.10;67.60;;;;;;5005547;28;20022;-75
2021/12/20 12:31:48;;;;;;;22.65;5.85;;;8.20;67.40;;;;;;5005457;28;20034;-75
2021/12/20 12:34:13;;;;;;;23.02;5.68;;;8.10;66.80;;;;;;4991948;28;20029;-75
2021/12/20 12:36:41;;;;;;;16.30;4.47;;;8.10;65.60;;;;;;4996739;28;20055;-75
2021/12/20 12:39:25;;;;;;;18.98;6.25;;;8.20;66.40;;;;;;4996060;28;20148;-74
2021/12/20 12:42:00;;;;;;;23.13;5.93;;;8.20;67.10;;;;;;4992780;28;20019;-75
2021/12/20 12:44:33;;;;;;;18.90;6.20;;;8.10;66.20;;;;;;4998269;28;20042;-74
2021/12/20 12:47:12;;;;;;;22.17;5.50;;;8.10;66.30;;;;;;4998793;28;20408;-75
2021/12/20 12:49:44;;;;;;;23.08;6.07;;;8.20;66.10;;;;;;5001329;28;20044;-75
2021/12/20 12:52:16;;;;;;;14.88;5.20;;;8.10;65.30;;;;;;5001046;28;20072;-75
2021/12/20 12:54:43;;;;;;;18.77;5.82;;;8.10;65.30;;;;;;5005490;28;20026;-76
2021/12/20 12:57:12;;;;;;;22.33;7.07;;;8.10;63.50;;;;;;5001581;28;20088;-75
2021/12/20 12:59:40;;;;;;;18.98;5.47;;;8.00;63.50;;;;;;5017135;28;20077;-75
2021/12/20 13:02:11;;;;;;;18.70;5.80;;;7.90;63.80;;;;;;5015917;28;20022;-76
2021/12/20 13:04:44;;;;;;;21.60;7.75;;;7.90;64.70;;;;;;5010049;28;20405;-75